createdAt,value
2023-04-01T00:01:17.182Z,99048.72
2023-04-01T00:03:44.091Z,99045.72
2023-04-01T00:06:16.547Z,99046.03
2023-04-01T00:08:43.216Z,99043.06
2023-04-01T00:11:09.746Z,99045.19
2023-04-01T00:13:36.810Z,99046.16
2023-04-01T00:16:13.480Z,99051.34
2023-04-01T00:18:48.362Z,99047.41
2023-04-01T00:21:15.527Z,99042.91
2023-04-01T00:23:42.602Z,99054.72
2023-04-01T00:26:09.130Z,99046.41
2023-04-01T00:28:37.188Z,99050.06
2023-04-01T00:31:09.576Z,99046.41
2023-04-01T00:33:36.648Z,99040.88
2023-04-01T00:36:22.997Z,99055.53
2023-04-01T00:38:51.288Z,99046.25
2023-04-01T00:41:18.844Z,99037.94
2023-04-01T00:43:48.229Z,99043.28
2023-04-01T00:46:14.957Z,99039.59
2023-04-01T00:48:48.680Z,99033.78
2023-04-01T00:51:19.595Z,99029.47
2023-04-01T00:53:49.465Z,99038.63
2023-04-01T00:56:23.272Z,99034.94
2023-04-01T00:58:55.686Z,99042.75
2023-04-01T01:01:24.943Z,99044.38
2023-04-01T01:03:51.688Z,99044.38
2023-04-01T01:10:13.757Z,99049.72
2023-04-01T01:13:16.210Z,99046.41
2023-04-01T01:15:48.627Z,99040.94
2023-04-01T01:18:23.877Z,99045.41
2023-04-01T01:21:21.046Z,99046.06
2023-04-01T01:24:14.457Z,99042.72
2023-04-01T01:26:59.393Z,99038.72
2023-04-01T01:29:37.644Z,99041.38
2023-04-01T01:32:16.640Z,99050.72
2023-04-01T01:35:16.552Z,99045.38
2023-04-01T01:37:46.290Z,99044.53
2023-04-01T01:40:14.921Z,99049.69
2023-04-01T01:42:46.435Z,99045.69
2023-04-01T01:45:15.486Z,99052.66
2023-04-01T01:47:43.760Z,99052.69
2023-04-01T01:50:11.033Z,99054.34
2023-04-01T01:52:37.491Z,99052.69
2023-04-01T01:55:04.540Z,99053.00
2023-04-01T01:57:35.521Z,99058.31
2023-04-01T02:00:13.859Z,99057.69
2023-04-01T02:02:45.037Z,99051.69
2023-04-01T02:05:16.626Z,99061.50
2023-04-01T02:07:48.079Z,99061.00
2023-04-01T02:10:15.408Z,99058.69
2023-04-01T02:12:45.774Z,99061.00
2023-04-01T02:15:15.917Z,99061.34
2023-04-01T02:17:46.331Z,99059.38
2023-04-01T02:20:20.730Z,99054.03
2023-04-01T02:22:56.912Z,99052.88
2023-04-01T02:25:32.326Z,99058.06
2023-04-01T02:28:00.032Z,99057.69
2023-04-01T02:30:29.603Z,99063.00
2023-04-01T02:32:58.193Z,99065.84
2023-04-01T02:35:26.068Z,99065.69
2023-04-01T02:37:54.721Z,99065.50
2023-04-01T02:40:21.515Z,99070.19
2023-04-01T02:42:48.358Z,99065.38
2023-04-01T02:45:15.735Z,99068.06
2023-04-01T02:47:42.315Z,99062.25
2023-04-01T02:50:10.124Z,99069.22
2023-04-01T02:52:36.845Z,99073.19
2023-04-01T02:55:04.377Z,99077.00
2023-04-01T02:57:31.218Z,99079.69
2023-04-01T02:59:57.642Z,99077.16
2023-04-01T03:02:24.286Z,99080.66
2023-04-01T03:04:50.793Z,99093.47
2023-04-01T03:07:17.291Z,99091.47
2023-04-01T03:09:43.824Z,99083.31
2023-04-01T03:12:10.284Z,99085.00
2023-04-01T03:14:37.021Z,99077.66
2023-04-01T03:17:03.484Z,99082.66
2023-04-01T03:19:29.998Z,99085.16
2023-04-01T03:21:56.448Z,99082.34
2023-04-01T03:24:22.960Z,99078.81
2023-04-01T03:26:49.513Z,99080.66
2023-04-01T03:29:16.909Z,99083.97
2023-04-01T03:31:43.838Z,99087.81
2023-04-01T03:34:10.549Z,99085.81
2023-04-01T03:36:37.366Z,99089.97
2023-04-01T03:39:04.732Z,99102.47
2023-04-01T03:41:31.785Z,99097.97
2023-04-01T03:43:58.314Z,99100.25
2023-04-01T03:46:25.401Z,99107.59
2023-04-01T03:48:51.882Z,99107.94
2023-04-01T03:51:18.655Z,99113.06
2023-04-01T03:53:45.119Z,99110.59
2023-04-01T03:56:12.104Z,99115.59
2023-04-01T03:58:39.801Z,99115.44
2023-04-01T04:01:24.322Z,99115.91
2023-04-01T04:03:51.957Z,99116.59
2023-04-01T04:06:19.721Z,99117.59
2023-04-01T04:08:46.300Z,99124.88
2023-04-01T04:11:12.878Z,99131.72
2023-04-01T04:13:39.433Z,99130.22
2023-04-01T04:16:06.288Z,99128.22
2023-04-01T04:18:32.865Z,99132.22
2023-04-01T04:20:59.587Z,99128.22
2023-04-01T04:23:26.350Z,99128.56
2023-04-01T04:26:05.080Z,99124.41
2023-04-01T04:28:32.348Z,99132.53
2023-04-01T04:30:58.886Z,99137.38
2023-04-01T04:33:26.050Z,99135.22
2023-04-01T04:35:55.719Z,99133.56
2023-04-01T04:38:22.698Z,99137.88
2023-04-01T04:40:49.299Z,99136.06
2023-04-01T04:43:17.025Z,99139.88
2023-04-01T04:45:44.131Z,99139.53
2023-04-01T04:48:11.936Z,99146.38
2023-04-01T04:50:38.553Z,99146.69
2023-04-01T04:53:05.040Z,99147.00
2023-04-01T04:55:31.738Z,99150.69
2023-04-01T04:57:58.415Z,99152.19
2023-04-01T05:00:25.081Z,99149.03
2023-04-01T05:02:51.682Z,99151.50
2023-04-01T05:05:18.254Z,99149.66
2023-04-01T05:07:44.735Z,99150.84
2023-04-01T05:10:11.357Z,99158.81
2023-04-01T05:12:39.761Z,99160.50
2023-04-01T05:15:07.278Z,99157.00
2023-04-01T05:17:33.822Z,99165.50
2023-04-01T05:20:00.325Z,99161.31
2023-04-01T05:22:27.060Z,99166.31
2023-04-01T05:24:53.551Z,99165.13
2023-04-01T05:27:20.161Z,99160.84
2023-04-01T05:29:46.658Z,99160.84
2023-04-01T05:32:13.188Z,99163.47
2023-04-01T05:34:39.648Z,99161.84
2023-04-01T05:37:06.186Z,99161.81
2023-04-01T05:39:32.780Z,99168.47
2023-04-01T05:41:59.278Z,99168.31
2023-04-01T05:44:25.696Z,99168.47
2023-04-01T05:46:52.176Z,99172.97
2023-04-01T05:49:18.761Z,99170.16
2023-04-01T05:51:45.328Z,99178.13
2023-04-01T05:54:12.095Z,99179.44
2023-04-01T05:56:38.598Z,99176.66
2023-04-01T05:59:05.160Z,99178.13
2023-04-01T06:01:31.667Z,99184.28
2023-04-01T06:03:58.453Z,99186.28
2023-04-01T06:06:28.760Z,99183.13
2023-04-01T06:08:57.625Z,99191.44
2023-04-01T06:11:27.260Z,99189.75
2023-04-01T06:14:29.328Z,99196.06
2023-04-01T06:16:55.852Z,99198.75
2023-04-01T06:19:59.255Z,99200.59
2023-04-01T06:23:07.219Z,99204.75
2023-04-01T06:25:44.074Z,99214.38
2023-04-01T06:28:32.399Z,99210.72
2023-04-01T06:31:17.765Z,99214.72
2023-04-01T06:34:02.746Z,99216.56
2023-04-01T06:36:44.866Z,99216.34
2023-04-01T06:39:29.969Z,99214.84
2023-04-01T06:42:30.272Z,99224.00
2023-04-01T06:45:27.380Z,99225.50
2023-04-01T06:48:21.474Z,99223.00
2023-04-01T06:51:18.095Z,99231.50
2023-04-01T06:54:13.561Z,99223.38
2023-04-01T06:56:43.992Z,99226.84
2023-04-01T06:59:21.995Z,99235.47
2023-04-01T07:02:13.956Z,99230.97
2023-04-01T07:04:44.188Z,99239.94
2023-04-01T07:07:22.936Z,99242.72
2023-04-01T07:09:53.811Z,99240.34
2023-04-01T07:12:32.609Z,99244.75
2023-04-01T07:15:06.603Z,99242.69
2023-04-01T07:17:37.680Z,99243.38
2023-04-01T07:20:21.529Z,99252.81
2023-04-01T07:22:55.938Z,99251.78
2023-04-01T07:25:26.669Z,99255.09
2023-04-01T07:28:06.182Z,99254.09
2023-04-01T07:31:17.838Z,99252.69
2023-04-01T07:34:13.317Z,99262.31
2023-04-01T07:36:46.176Z,99265.03
2023-04-01T07:39:27.554Z,99263.72
2023-04-01T07:42:22.136Z,99257.34
2023-04-01T07:44:56.041Z,99261.88
2023-04-01T07:47:50.557Z,99267.50
2023-04-01T07:50:42.894Z,99265.34
2023-04-01T07:53:15.830Z,99267.16
2023-04-01T07:56:00.962Z,99272.88
2023-04-01T08:20:29.612Z,99286.09
2023-04-01T08:23:05.659Z,99288.28
2023-04-01T08:25:35.265Z,99287.97
2023-04-01T08:28:16.559Z,99287.31
2023-04-01T08:30:58.738Z,99298.63
2023-04-01T08:33:28.220Z,99298.16
2023-04-01T08:36:00.296Z,99294.03
2023-04-01T08:38:45.363Z,99298.78
2023-04-01T08:41:40.317Z,99305.03
2023-04-01T08:44:44.337Z,99297.88
2023-04-01T08:47:39.237Z,99304.41
2023-04-01T08:50:34.912Z,99300.84
2023-04-01T08:53:46.550Z,99312.47
2023-04-01T08:56:21.608Z,99308.97
2023-04-01T08:59:28.460Z,99313.00
2023-04-01T09:02:28.145Z,99313.91
2023-04-01T09:05:33.653Z,99313.09
2023-04-01T09:08:45.797Z,99318.06
2023-04-01T09:11:29.170Z,99314.16
2023-04-01T09:14:04.723Z,99322.06
2023-04-01T13:55:50.951Z,99596.41
2023-04-01T13:58:37.154Z,99598.75
2023-04-01T14:01:13.950Z,99603.22
2023-04-01T14:04:09.644Z,99601.56
2023-04-01T14:07:15.718Z,99613.31
2023-04-01T14:10:14.674Z,99617.63
2023-04-01T14:13:10.400Z,99618.47
2023-04-01T14:15:46.745Z,99627.94
2023-04-01T14:18:31.590Z,99628.34
2023-04-01T14:21:01.015Z,99633.66
2023-04-01T14:23:47.963Z,99646.22
2023-04-01T14:26:42.986Z,99646.50
2023-04-01T14:29:26.164Z,99654.03
2023-04-01T14:32:09.098Z,99657.94
2023-04-01T14:35:06.458Z,99655.28
2023-04-01T14:37:56.973Z,99652.06
2023-04-01T14:40:35.800Z,99661.97
2023-04-01T14:43:12.523Z,99665.31
2023-04-01T14:46:09.763Z,99673.28
2023-04-01T14:48:58.518Z,99681.34
2023-04-01T14:51:40.316Z,99677.72
2023-04-01T14:54:14.411Z,99683.88
2023-04-01T14:56:45.437Z,99690.16
2023-04-01T14:59:27.070Z,99694.19
2023-04-01T15:02:03.404Z,99696.72
2023-04-01T15:04:45.067Z,99695.84
2023-04-01T15:07:45.032Z,99702.84
2023-04-01T15:10:20.706Z,99696.28
2023-04-01T15:13:06.073Z,99705.19
2023-04-01T15:15:51.453Z,99710.66
2023-04-01T15:18:55.314Z,99713.13
2023-04-01T15:21:34.927Z,99721.34
2023-04-01T15:24:16.013Z,99720.53
2023-04-01T15:27:14.983Z,99729.31
2023-04-01T15:30:17.152Z,99728.19
2023-04-01T15:32:46.532Z,99734.88
2023-04-01T15:35:53.807Z,99744.78
2023-04-01T15:38:37.357Z,99742.41
2023-04-01T15:41:16.830Z,99746.91
2023-04-01T15:43:49.761Z,99743.75
2023-04-01T15:46:42.569Z,99762.34
2023-04-01T15:49:18.245Z,99753.34
2023-04-01T15:52:06.928Z,99763.09
2023-04-01T15:55:06.126Z,99774.91
2023-04-01T15:57:53.692Z,99775.28
2023-04-01T16:00:27.370Z,99781.41
2023-04-01T16:03:28.462Z,99778.53
2023-04-01T16:06:09.885Z,99774.78
2023-04-01T16:08:48.058Z,99779.22
2023-04-01T16:11:33.595Z,99795.66
2023-04-01T16:14:13.922Z,99794.28
2023-04-01T16:16:47.367Z,99804.47
2023-04-01T16:19:32.158Z,99793.16
2023-04-01T16:22:27.903Z,99800.06
2023-04-01T16:25:25.344Z,99806.44
2023-04-01T16:28:17.780Z,99815.72
2023-04-01T16:30:56.561Z,99824.25
2023-04-01T16:33:36.553Z,99824.91
2023-04-01T16:36:12.375Z,99827.22
2023-04-01T16:39:08.680Z,99829.16
2023-04-01T16:41:43.110Z,99834.13
2023-04-01T16:44:19.084Z,99837.25
2023-04-01T16:46:51.011Z,99844.97
2023-04-01T16:49:50.634Z,99850.78
2023-04-01T21:07:55.434Z,100307.75
2023-04-01T21:10:36.349Z,100318.28
2023-04-01T21:13:20.875Z,100317.75
2023-04-01T21:16:09.739Z,100321.47
2023-04-01T21:18:56.275Z,100321.72
2023-04-01T21:21:44.248Z,100337.44
2023-04-01T21:24:13.479Z,100341.66
2023-04-01T21:27:09.665Z,100346.94
2023-04-01T21:29:57.699Z,100349.31
2023-04-01T21:32:55.274Z,100350.47
2023-04-01T21:35:32.144Z,100358.94
2023-04-01T21:38:23.341Z,100364.97
2023-04-01T21:40:54.500Z,100364.47
2023-04-01T21:43:32.053Z,100359.59
2023-04-01T21:46:10.801Z,100369.38
2023-04-01T21:49:19.992Z,100378.38
2023-04-01T21:52:18.707Z,100375.31
2023-04-01T21:55:10.068Z,100389.44
2023-04-01T21:57:58.316Z,100385.78
2023-04-01T22:00:32.941Z,100396.69
2023-04-01T22:03:26.044Z,100409.00
2023-04-01T22:06:03.057Z,100406.38
2023-04-01T22:08:48.238Z,100408.44
2023-04-01T22:11:50.746Z,100409.09
2023-04-01T22:14:49.017Z,100416.72
2023-04-01T22:17:28.069Z,100419.94
2023-04-01T22:20:06.074Z,100428.50
2023-04-01T22:22:39.441Z,100436.00
2023-04-01T22:25:24.315Z,100448.25
2023-04-01T22:27:58.915Z,100436.84
2023-04-01T22:30:31.901Z,100446.47
2023-04-01T22:33:01.508Z,100451.34
2023-04-01T22:36:03.420Z,100448.44
2023-04-01T22:38:48.659Z,100451.06
2023-04-01T22:41:18.955Z,100449.56
2023-04-01T22:43:47.051Z,100458.78
2023-04-01T22:46:54.310Z,100460.38
2023-04-01T22:49:52.463Z,100465.00
2023-04-01T22:52:42.907Z,100471.28
2023-04-01T22:55:23.131Z,100476.75
2023-04-01T22:58:33.794Z,100492.19
2023-04-01T23:01:06.664Z,100485.59
2023-04-01T23:03:37.138Z,100497.66
2023-04-01T23:06:05.787Z,100481.91
2023-04-01T23:08:41.800Z,100501.50
2023-04-01T23:11:14.721Z,100504.13
2023-04-01T23:13:49.366Z,100495.84
2023-04-01T23:16:19.576Z,100497.16
2023-04-01T23:18:56.599Z,100512.78
2023-04-01T23:21:33.255Z,100508.25
2023-04-01T23:24:14.891Z,100516.53
2023-04-01T23:26:47.351Z,100526.41
2023-04-01T23:29:18.874Z,100522.66
2023-04-01T23:31:49.456Z,100523.16
2023-04-01T23:34:28.447Z,100542.03
2023-04-01T23:36:58.906Z,100531.78
2023-04-01T23:39:31.227Z,100525.78
2023-04-01T23:42:23.417Z,100544.78
2023-04-01T23:44:53.032Z,100545.16
2023-04-01T23:47:34.935Z,100550.59
2023-04-01T23:50:11.810Z,100552.13
2023-04-01T23:52:44.332Z,100557.41
2023-04-01T23:55:15.694Z,100559.25
2023-04-01T23:57:42.385Z,100562.84
